Time;durP1;ratioP1;P1;durP2;ratioP2;P2;SDS_P1;SDS_P2;PMS_P1;PMS_P2;Temp;Humidity;BMP_temperature;BMP_pressure;BME280_temperature;BME280_humidity;BME280_pressure;Samples;Min_cycle;Max_cycle;Signal;HPM_P1;HPM_P2
2022/11/30 00:01:48;;;;;;;26.63;14.25;;;;;;;7.56;57.03;101776.00;5066710;28;20041;-70
2022/11/30 00:04:16;;;;;;;27.77;13.15;;;;;;;7.55;56.98;101769.66;5067290;28;20046;-70
2022/11/30 00:06:45;;;;;;;26.25;13.30;;;;;;;7.56;56.60;101776.88;5065176;28;20082;-73
2022/11/30 00:09:13;;;;;;;27.02;13.27;;;;;;;7.55;57.14;101769.66;5066879;28;20048;-70
2022/11/30 00:11:41;;;;;;;27.20;12.75;;;;;;;7.55;56.61;101774.25;5066554;28;20040;-69
2022/11/30 00:14:09;;;;;;;29.38;14.90;;;;;;;7.54;56.88;101773.38;5063867;28;20566;-71
2022/11/30 00:16:37;;;;;;;26.90;13.65;;;;;;;7.54;57.17;101776.09;5065309;28;20059;-71
2022/11/30 00:19:05;;;;;;;24.35;12.43;;;;;;;7.54;56.64;101775.19;5061714;28;20072;-72
2022/11/30 00:21:33;;;;;;;25.58;13.18;;;;;;;7.54;57.15;101777.94;5067699;28;20044;-71
2022/11/30 00:24:02;;;;;;;29.80;13.55;;;;;;;7.54;56.61;101776.09;5063825;28;20052;-70
2022/11/30 00:26:30;;;;;;;25.88;12.50;;;;;;;7.52;57.01;101783.47;5066925;28;20048;-70
2022/11/30 00:28:57;;;;;;;24.38;12.98;;;;;;;7.52;56.66;101780.75;5065725;28;20396;-71
2022/11/30 00:31:26;;;;;;;26.85;12.35;;;;;;;7.52;56.81;101780.75;5066932;28;20086;-72
2022/11/30 00:33:55;;;;;;;24.08;12.00;;;;;;;7.52;56.73;101775.28;5065438;28;20076;-70
2022/11/30 00:36:23;;;;;;;26.50;12.63;;;;;;;7.52;56.93;101783.47;5065350;28;20052;-70
2022/11/30 00:38:51;;;;;;;28.20;12.80;;;;;;;7.54;56.93;101777.94;5065675;28;20060;-71
2022/11/30 00:41:21;;;;;;;24.48;12.38;;;;;;;7.54;56.92;101777.94;5066055;28;20134;-72
2022/11/30 00:43:49;;;;;;;27.48;11.85;;;;;;;7.53;56.75;101773.44;5065597;28;20037;-69
2022/11/30 00:46:17;;;;;;;26.35;11.85;;;;;;;7.53;56.84;101778.91;5066576;28;20036;-71
2022/11/30 00:48:45;;;;;;;26.23;12.77;;;;;;;7.53;56.97;101777.06;5066056;28;20397;-70
2022/11/30 00:51:15;;;;;;;26.75;12.07;;;;;;;7.54;57.19;101772.47;5069566;28;20094;-70
2022/11/30 00:53:43;;;;;;;25.13;12.63;;;;;;;7.53;56.86;101777.06;5070765;28;20361;-70
2022/11/30 00:56:11;;;;;;;27.50;11.82;;;;;;;7.53;57.07;101776.16;5069672;28;20048;-71
2022/11/30 00:58:40;;;;;;;25.70;12.02;;;;;;;7.54;57.19;101772.47;5066778;28;21288;-70
2022/11/30 01:01:08;;;;;;;23.58;11.32;;;;;;;7.52;57.29;101778.00;5069592;28;20730;-71
2022/11/30 01:03:36;;;;;;;25.75;12.60;;;;;;;7.52;57.28;101764.41;5070817;28;20545;-70
2022/11/30 01:06:05;;;;;;;22.02;11.23;;;;;;;7.53;57.25;101773.44;5070330;28;20079;-71
2022/11/30 01:08:33;;;;;;;24.90;12.00;;;;;;;7.52;56.77;101772.56;5068750;28;20044;-71
2022/11/30 01:11:06;;;;;;;23.30;11.45;;;;;;;7.53;57.38;101778.91;5069282;28;20037;-70
2022/11/30 01:13:34;;;;;;;23.95;12.15;;;;;;;7.49;57.04;101775.50;5069083;28;20052;-70
2022/11/30 01:16:09;;;;;;;22.67;11.63;;;;;;;7.53;57.36;101774.31;5064835;28;20381;-72
2022/11/30 01:18:37;;;;;;;24.85;12.25;;;;;;;7.51;57.01;101778.13;5052072;28;20048;-71
2022/11/30 01:21:07;;;;;;;27.45;12.82;;;;;;;7.51;57.00;101780.84;5061658;28;20044;-70
2022/11/30 01:23:34;;;;;;;26.95;12.98;;;;;;;7.49;56.94;101780.94;5069663;28;20048;-74
2022/11/30 01:26:02;;;;;;;26.00;12.82;;;;;;;7.50;57.03;101790.00;5068652;28;20059;-70
2022/11/30 01:28:30;;;;;;;26.77;12.18;;;;;;;7.50;56.86;101784.56;5069771;28;20040;-71
2022/11/30 01:30:59;;;;;;;26.10;12.45;;;;;;;7.49;57.32;101788.25;5066141;28;20517;-72
2022/11/30 01:33:28;;;;;;;25.27;13.00;;;;;;;7.49;57.02;101780.94;5069447;28;20048;-72
2022/11/30 01:36:00;;;;;;;24.52;11.95;;;;;;;7.49;57.08;101783.66;5069329;28;20032;-70
2022/11/30 01:38:32;;;;;;;28.50;12.45;;;;;;;7.48;57.11;101786.47;5068503;28;20044;-71
2022/11/30 01:41:00;;;;;;;23.88;11.93;;;;;;;7.46;57.52;101781.13;5068759;28;20036;-71
2022/11/30 01:43:38;;;;;;;26.55;12.57;;;;;;;7.49;57.21;101780.06;5069034;28;20041;-72
2022/11/30 01:46:17;;;;;;;25.88;12.77;;;;;;;7.47;57.25;101788.31;5067942;28;20148;-71
2022/11/30 01:48:50;;;;;;;27.20;12.38;;;;;;;7.48;57.45;101781.03;5068105;28;20044;-71
2022/11/30 01:51:18;;;;;;;24.80;12.25;;;;;;;7.45;57.49;101779.34;5069661;28;20047;-70
2022/11/30 01:53:46;;;;;;;24.67;13.00;;;;;;;7.46;57.13;101781.13;5068543;28;20090;-69
2022/11/30 01:56:14;;;;;;;23.52;11.63;;;;;;;7.47;57.05;101784.72;5069200;28;20115;-71
2022/11/30 01:58:42;;;;;;;26.30;12.50;;;;;;;7.45;57.58;101783.94;5039001;28;20047;-70
2022/11/30 02:01:12;;;;;;;27.88;12.90;;;;;;;7.46;57.10;101788.41;5067395;28;20083;-72
2022/11/30 02:03:48;;;;;;;28.25;12.38;;;;;;;7.48;57.39;101795.53;5069401;28;20097;-71
2022/11/30 02:06:18;;;;;;;27.27;13.10;;;;;;;7.48;57.15;101787.34;5068437;28;20040;-72
2022/11/30 02:08:46;;;;;;;26.73;12.65;;;;;;;7.47;57.39;101785.59;5066208;28;20681;-71
2022/11/30 02:11:15;;;;;;;26.92;12.85;;;;;;;7.47;57.11;101782.88;5068299;28;20049;-70
2022/11/30 02:14:01;;;;;;;24.92;12.80;;;;;;;7.50;57.33;101779.09;5067538;28;20041;-70
2022/11/30 02:16:39;;;;;;;28.77;13.40;;;;;;;7.49;57.43;101785.50;5064763;28;20420;-71
2022/11/30 02:19:28;;;;;;;29.52;12.55;;;;;;;7.49;57.89;101783.66;5063851;28;20071;-70
2022/11/30 02:22:03;;;;;;;29.02;13.63;;;;;;;7.49;57.45;101785.50;5065792;28;20505;-70
2022/11/30 02:24:49;;;;;;;28.27;13.35;;;;;;;7.49;57.60;101782.78;5058882;28;20047;-70
2022/11/30 02:27:37;;;;;;;34.42;14.77;;;;;;;7.48;57.42;101776.47;5066006;28;20938;-72
2022/11/30 02:30:10;;;;;;;28.90;13.25;;;;;;;7.47;57.67;101782.88;5065600;28;20071;-70
2022/11/30 02:32:46;;;;;;;29.25;14.43;;;;;;;7.47;57.31;101780.16;5067955;28;20111;-71
2022/11/30 02:35:17;;;;;;;32.53;13.52;;;;;;;7.47;57.72;101776.56;5039595;28;20054;-70
2022/11/30 02:37:46;;;;;;;35.17;14.80;;;;;;;7.47;57.28;101771.97;5066141;28;20117;-70
2022/11/30 02:40:15;;;;;;;35.83;15.23;;;;;;;7.48;57.44;101775.59;5067452;28;20218;-71
2022/11/30 02:42:43;;;;;;;30.35;14.45;;;;;;;7.47;57.59;101771.97;5067688;28;20064;-69
2022/11/30 02:45:13;;;;;;;31.48;14.80;;;;;;;7.49;57.38;101769.16;5064117;28;20078;-69
2022/11/30 02:47:46;;;;;;;35.50;15.02;;;;;;;7.50;57.31;101773.66;5066084;28;20049;-70
2022/11/30 02:50:18;;;;;;;32.33;14.57;;;;;;;7.49;57.68;101771.91;5066438;28;20044;-72
2022/11/30 02:52:46;;;;;;;34.17;14.85;;;;;;;7.49;57.42;101774.63;5062604;28;20517;-70
2022/11/30 02:55:17;;;;;;;35.90;15.43;;;;;;;7.49;57.44;101772.78;5067209;28;20048;-72
2022/11/30 02:57:45;;;;;;;33.60;14.93;;;;;;;7.48;57.24;101770.13;5066655;28;20050;-71
2022/11/30 03:00:16;;;;;;;37.55;15.43;;;;;;;7.50;57.29;101771.81;5066675;28;20041;-72
2022/11/30 03:02:43;;;;;;;32.85;14.70;;;;;;;7.49;57.84;101766.44;5068048;28;20055;-70
2022/11/30 03:05:11;;;;;;;33.20;15.18;;;;;;;7.49;57.39;101772.78;5065380;28;20071;-70
2022/11/30 03:07:39;;;;;;;33.63;15.70;;;;;;;7.50;57.46;101770.94;5049450;28;20132;-71
2022/11/30 03:10:09;;;;;;;33.63;14.30;;;;;;;7.52;57.39;101760.78;5066012;28;20456;-71
2022/11/30 03:12:37;;;;;;;31.67;14.48;;;;;;;7.51;57.65;101767.25;5067596;28;20071;-70
2022/11/30 03:15:06;;;;;;;28.63;13.88;;;;;;;7.52;57.31;101766.25;5063908;28;20468;-70
2022/11/30 03:17:35;;;;;;;27.38;14.07;;;;;;;7.52;57.50;101766.25;5063485;28;20082;-71
2022/11/30 03:20:04;;;;;;;29.10;13.15;;;;;;;7.51;57.32;101761.78;5065380;28;20540;-70
2022/11/30 03:22:31;;;;;;;27.35;13.35;;;;;;;7.51;57.20;101769.97;5067456;28;20400;-71
2022/11/30 03:24:59;;;;;;;27.60;13.85;;;;;;;7.51;57.77;101768.13;5066173;28;20044;-73
2022/11/30 03:27:27;;;;;;;27.02;13.98;;;;;;;7.51;57.73;101761.78;5064075;28;20113;-70
2022/11/30 03:29:55;;;;;;;28.40;13.25;;;;;;;7.52;57.78;101769.84;5065745;28;20045;-70
2022/11/30 03:32:23;;;;;;;29.35;14.43;;;;;;;7.52;57.48;101771.69;5065384;28;20036;-72
2022/11/30 03:34:52;;;;;;;27.20;13.95;;;;;;;7.52;57.28;101775.28;5065485;28;20102;-69
2022/11/30 03:37:20;;;;;;;28.77;13.98;;;;;;;7.52;57.60;101771.69;5066269;28;20157;-70
2022/11/30 03:39:48;;;;;;;27.90;14.05;;;;;;;7.52;57.55;101782.59;5067015;28;20040;-72
2022/11/30 03:42:23;;;;;;;23.15;12.32;;;;;;;7.51;57.62;101784.47;5068357;28;20350;-70
2022/11/30 03:44:51;;;;;;;26.30;13.27;;;;;;;7.52;57.19;101785.31;5064788;28;20463;-70
2022/11/30 03:47:18;;;;;;;25.73;14.05;;;;;;;7.53;57.66;101781.63;5065517;28;20083;-70
2022/11/30 03:49:46;;;;;;;28.52;15.05;;;;;;;7.52;57.39;101782.59;5066817;28;20090;-71
2022/11/30 03:52:16;;;;;;;28.40;15.38;;;;;;;7.52;57.46;101783.47;5049631;28;20428;-73
2022/11/30 03:54:43;;;;;;;29.85;15.18;;;;;;;7.51;57.12;101787.19;5065637;28;20056;-70
2022/11/30 03:57:12;;;;;;;30.52;14.82;;;;;;;7.52;57.64;101788.03;5065401;28;20048;-72
2022/11/30 03:59:40;;;;;;;30.08;15.23;;;;;;;7.52;57.45;101786.19;5053209;28;20044;-70
2022/11/30 04:02:07;;;;;;;29.88;15.90;;;;;;;7.52;57.20;101793.47;5064671;28;20380;-70
2022/11/30 04:04:35;;;;;;;32.13;17.67;;;;;;;7.52;57.35;101793.47;5066700;28;20043;-70
2022/11/30 04:09:45;;;;;;;33.25;17.90;;;;;;;7.51;57.27;101798.09;5080693;28;20097;-74
2022/11/30 04:12:13;;;;;;;31.95;16.75;;;;;;;7.51;57.65;101795.34;5082415;28;20040;-75
2022/11/30 04:14:41;;;;;;;35.97;17.70;;;;;;;7.50;57.29;101796.31;5083775;28;20089;-74
2022/11/30 04:17:08;;;;;;;34.90;16.55;;;;;;;7.50;57.48;101800.91;5084366;28;20075;-73
2022/11/30 04:19:36;;;;;;;35.58;18.55;;;;;;;7.50;57.30;101800.91;5090679;28;20039;-75
2022/11/30 04:22:04;;;;;;;36.92;17.80;;;;;;;7.50;57.39;101800.91;5085564;28;20537;-74
2022/11/30 04:24:32;;;;;;;36.10;16.80;;;;;;;7.51;57.61;101797.19;5088402;28;20624;-74
2022/11/30 04:27:01;;;;;;;37.92;19.40;;;;;;;7.50;57.23;101799.03;5085206;28;20040;-75
2022/11/30 04:29:29;;;;;;;34.45;17.08;;;;;;;7.49;57.48;101799.13;5090272;28;20054;-74
2022/11/30 04:31:57;;;;;;;37.05;19.98;;;;;;;7.49;57.80;101796.41;5076436;28;20037;-75
2022/11/30 04:34:27;;;;;;;35.58;17.50;;;;;;;7.49;57.66;101805.47;5081792;28;20051;-74
2022/11/30 04:36:55;;;;;;;34.97;18.17;;;;;;;7.49;57.55;101802.72;5086228;28;20048;-74
2022/11/30 04:39:27;;;;;;;34.20;18.15;;;;;;;7.47;57.76;101795.63;5082737;28;20431;-75
2022/11/30 04:41:55;;;;;;;38.97;18.05;;;;;;;7.49;57.33;101802.72;5089070;28;20098;-74
2022/11/30 04:44:24;;;;;;;36.97;17.67;;;;;;;7.49;57.53;101802.72;5083836;28;20090;-73
2022/11/30 04:46:52;;;;;;;40.72;19.40;;;;;;;7.49;57.77;101807.31;5081811;28;20036;-75
2022/11/30 04:49:20;;;;;;;37.25;19.02;;;;;;;7.49;57.44;101818.19;5084203;28;20419;-74
2022/11/30 04:51:48;;;;;;;40.38;20.33;;;;;;;7.48;57.41;101817.31;5080285;28;20579;-74
2022/11/30 04:54:16;;;;;;;39.58;19.85;;;;;;;7.48;57.47;101814.59;5073992;28;20067;-73
2022/11/30 04:56:44;;;;;;;38.90;19.98;;;;;;;7.47;57.05;101815.56;5092981;28;20499;-73
2022/11/30 04:59:12;;;;;;;36.53;18.15;;;;;;;7.48;56.97;101811.00;5083911;28;20040;-73
2022/11/30 05:01:41;;;;;;;30.27;16.25;;;;;;;7.48;57.42;101814.59;5088115;28;20036;-75
2022/11/30 05:04:10;;;;;;;26.67;14.43;;;;;;;7.48;57.13;101821.88;5069436;28;20451;-75
2022/11/30 05:06:38;;;;;;;25.77;14.55;;;;;;;7.46;57.35;101815.66;5085815;28;20078;-74
2022/11/30 05:09:06;;;;;;;23.73;13.63;;;;;;;7.46;57.18;101823.81;5072707;28;20454;-74
2022/11/30 05:11:34;;;;;;;24.35;13.25;;;;;;;7.44;57.28;101823.03;5083207;28;20534;-74
2022/11/30 05:14:02;;;;;;;23.70;12.93;;;;;;;7.44;56.96;101818.44;5058350;28;20075;-74
2022/11/30 05:16:29;;;;;;;22.83;13.40;;;;;;;7.43;56.81;101826.75;5086369;28;20040;-74
2022/11/30 05:18:59;;;;;;;22.00;11.98;;;;;;;7.43;56.76;101834.91;5064318;28;22163;-76
2022/11/30 05:21:27;;;;;;;22.42;12.38;;;;;;;7.41;56.83;101821.38;5077882;28;20086;-74
2022/11/30 05:23:54;;;;;;;21.38;12.50;;;;;;;7.41;56.85;101835.00;5069825;28;20044;-74
2022/11/30 05:26:22;;;;;;;23.00;12.20;;;;;;;7.41;56.65;101831.41;5089332;28;20809;-74
2022/11/30 05:28:50;;;;;;;21.17;12.40;;;;;;;7.40;56.85;101835.97;5084410;28;20036;-74
2022/11/30 05:31:18;;;;;;;21.83;12.57;;;;;;;7.38;56.34;101834.28;5084508;28;20048;-75
2022/11/30 05:33:50;;;;;;;23.17;12.25;;;;;;;7.39;56.29;101836.94;5068811;28;20048;-75
2022/11/30 05:36:20;;;;;;;20.83;11.95;;;;;;;7.35;56.17;101839.94;5082436;28;20056;-74
2022/11/30 05:38:49;;;;;;;21.52;12.32;;;;;;;7.34;56.60;101840.91;5086222;28;20035;-74
2022/11/30 05:41:16;;;;;;;18.88;11.13;;;;;;;7.33;56.17;101839.13;5084559;28;20097;-74
2022/11/30 05:43:44;;;;;;;21.98;12.60;;;;;;;7.30;56.21;101832.00;5085454;28;20069;-75
2022/11/30 05:46:12;;;;;;;21.27;12.15;;;;;;;7.29;55.94;101832.97;5082172;28;20047;-75
2022/11/30 05:48:40;;;;;;;21.42;12.48;;;;;;;7.27;56.11;101834.06;5086562;28;20489;-73
2022/11/30 05:51:10;;;;;;;20.30;11.70;;;;;;;7.26;56.11;101833.19;5093408;28;20058;-74
2022/11/30 05:53:39;;;;;;;19.92;11.70;;;;;;;7.26;56.11;101835.91;5079956;28;20048;-74
2022/11/30 05:56:11;;;;;;;21.48;11.50;;;;;;;7.25;55.82;101839.59;5093779;28;20047;-74
2022/11/30 05:58:40;;;;;;;19.58;10.73;;;;;;;7.24;56.36;101839.66;5080882;28;20088;-75
2022/11/30 06:01:08;;;;;;;19.85;11.40;;;;;;;7.23;56.20;101837.91;5069272;28;20058;-74
2022/11/30 06:03:36;;;;;;;18.27;11.02;;;;;;;7.23;56.37;101840.63;5091781;28;20058;-74
2022/11/30 06:06:04;;;;;;;19.73;11.43;;;;;;;7.22;56.10;101847.91;5084266;28;20436;-74
2022/11/30 06:08:32;;;;;;;18.33;10.77;;;;;;;7.22;56.13;101842.47;5091708;28;20040;-74
2022/11/30 06:11:01;;;;;;;18.17;10.52;;;;;;;7.24;55.77;101850.56;5074886;28;20062;-74
2022/11/30 06:13:31;;;;;;;16.55;9.90;;;;;;;7.22;56.15;101852.47;5087276;28;20032;-74
2022/11/30 06:15:59;;;;;;;21.40;11.30;;;;;;;7.22;55.85;101847.03;5089516;28;20609;-75
2022/11/30 06:18:27;;;;;;;19.38;11.77;;;;;;;7.20;55.82;101853.44;5091071;28;20097;-74
2022/11/30 06:20:58;;;;;;;20.70;10.98;;;;;;;7.20;56.08;101842.56;5087950;28;20044;-74
2022/11/30 06:23:26;;;;;;;19.95;11.32;;;;;;;7.21;56.03;101843.44;5087303;28;20036;-74
2022/11/30 06:25:54;;;;;;;18.52;10.85;;;;;;;7.20;55.84;101842.56;5082259;28;20051;-74
2022/11/30 06:28:24;;;;;;;19.63;11.23;;;;;;;7.21;55.66;101848.88;5089702;28;20055;-75
2022/11/30 06:30:51;;;;;;;18.75;10.95;;;;;;;7.19;56.00;101845.38;5067723;28;20055;-74
2022/11/30 06:33:22;;;;;;;20.40;11.82;;;;;;;7.20;55.78;101848.00;5083173;28;20051;-73
2022/11/30 06:35:50;;;;;;;18.42;10.30;;;;;;;7.18;55.81;101851.81;5095535;28;20188;-75
2022/11/30 06:38:19;;;;;;;19.80;11.32;;;;;;;7.18;55.89;101847.25;5070760;28;20077;-74
2022/11/30 06:40:47;;;;;;;17.83;10.55;;;;;;;7.17;55.74;101844.59;5086349;28;20039;-74
2022/11/30 06:43:15;;;;;;;18.30;11.25;;;;;;;7.16;56.07;101841.00;5094444;28;20105;-74
2022/11/30 06:45:45;;;;;;;18.73;11.25;;;;;;;7.18;55.96;101843.63;5085314;28;20036;-74
2022/11/30 06:48:14;;;;;;;20.55;11.43;;;;;;;7.16;55.82;101851.88;5097629;28;20048;-75
2022/11/30 06:50:41;;;;;;;18.95;11.98;;;;;;;7.15;55.56;101852.84;5093450;28;20409;-74
2022/11/30 06:53:16;;;;;;;20.23;10.70;;;;;;;7.14;55.93;101858.38;5085814;28;20119;-75
2022/11/30 06:55:44;;;;;;;17.70;10.35;;;;;;;7.14;55.59;101858.38;5088214;28;20036;-74
2022/11/30 06:58:12;;;;;;;19.48;11.10;;;;;;;7.14;55.89;101858.38;5086551;28;20043;-74
2022/11/30 07:00:41;;;;;;;19.55;11.80;;;;;;;7.12;56.08;101853.00;5092735;28;20051;-74
2022/11/30 07:03:11;;;;;;;20.08;11.25;;;;;;;7.14;55.36;101858.38;5094039;28;20077;-75
2022/11/30 07:05:42;;;;;;;18.05;11.40;;;;;;;7.13;55.37;101853.88;5096429;28;20142;-75
2022/11/30 07:08:11;;;;;;;19.30;10.93;;;;;;;7.12;55.83;101863.03;5095524;28;20504;-74
2022/11/30 07:10:40;;;;;;;19.92;12.02;;;;;;;7.11;55.80;101862.13;5094378;28;20522;-74
2022/11/30 07:13:10;;;;;;;21.67;12.13;;;;;;;7.11;55.87;101866.69;5083100;28;21971;-74
2022/11/30 07:15:39;;;;;;;18.15;10.73;;;;;;;7.09;55.80;101872.25;5082468;28;20101;-74
2022/11/30 07:18:07;;;;;;;17.35;10.60;;;;;;;7.10;55.51;101868.59;5089261;28;20048;-74
2022/11/30 07:20:37;;;;;;;19.00;11.25;;;;;;;7.11;55.86;101872.16;5090499;28;20435;-75
2022/11/30 07:28:33;;;;;;;19.38;11.25;;;;;;;7.07;55.75;101876.03;5082201;28;20787;-72
2022/11/30 07:31:01;;;;;;;21.23;11.18;;;;;;;7.08;55.83;101877.78;5088904;28;20044;-73
2022/11/30 07:33:31;;;;;;;19.75;11.18;;;;;;;7.09;55.76;101877.72;5084636;28;20076;-73
2022/11/30 07:36:00;;;;;;;19.45;10.90;;;;;;;7.09;56.00;101887.72;5087169;28;20458;-76
2022/11/30 07:38:28;;;;;;;18.60;11.27;;;;;;;7.08;55.69;101891.41;5089280;28;20039;-75
2022/11/30 07:40:57;;;;;;;20.48;11.73;;;;;;;7.09;55.97;101898.59;5073597;28;20093;-73
2022/11/30 07:43:25;;;;;;;18.27;10.75;;;;;;;7.08;55.98;101894.13;5093574;28;20044;-75
2022/11/30 07:45:53;;;;;;;20.73;12.32;;;;;;;7.08;56.07;101900.44;5085059;28;20452;-73
2022/11/30 07:48:22;;;;;;;19.50;11.85;;;;;;;7.09;55.97;101904.03;5082437;28;20035;-73
2022/11/30 07:50:50;;;;;;;20.92;12.38;;;;;;;7.09;56.16;101909.50;5086920;28;20044;-72
2022/11/30 07:53:19;;;;;;;18.08;11.90;;;;;;;7.09;55.98;101896.75;5087653;28;20047;-75
2022/11/30 07:55:47;;;;;;;20.55;11.75;;;;;;;7.09;55.81;101904.94;5068950;28;20036;-72
2022/11/30 07:58:23;;;;;;;20.35;11.88;;;;;;;7.10;55.90;101909.41;5079917;28;20121;-74
2022/11/30 08:00:51;;;;;;;22.02;12.57;;;;;;;7.11;55.87;101902.97;5081114;28;20036;-74
2022/11/30 08:03:19;;;;;;;20.48;11.60;;;;;;;7.10;55.66;101912.13;5093574;28;20487;-74
2022/11/30 08:05:47;;;;;;;22.15;11.98;;;;;;;7.11;56.09;101913.88;5092391;28;20553;-74
2022/11/30 08:08:15;;;;;;;21.83;11.98;;;;;;;7.11;55.97;101908.41;5096525;28;20048;-74
2022/11/30 08:10:44;;;;;;;22.27;12.40;;;;;;;7.13;55.96;101914.66;5087854;28;20059;-75
2022/11/30 08:13:12;;;;;;;20.77;11.77;;;;;;;7.12;56.21;101915.63;5095679;28;20044;-75
2022/11/30 08:15:40;;;;;;;21.75;12.27;;;;;;;7.12;55.75;101923.78;5068143;28;20036;-74
2022/11/30 08:18:07;;;;;;;20.80;13.50;;;;;;;7.13;55.82;101927.41;5081296;28;20492;-75
2022/11/30 08:20:35;;;;;;;20.98;12.48;;;;;;;7.12;56.15;101923.78;5085548;28;20532;-73
2022/11/30 08:23:03;;;;;;;21.80;12.75;;;;;;;7.13;55.91;101928.28;5087769;28;20044;-74
2022/11/30 08:25:31;;;;;;;19.45;12.13;;;;;;;7.14;55.81;101932.75;5086097;28;20028;-73
2022/11/30 08:28:00;;;;;;;23.80;13.70;;;;;;;7.16;55.91;101928.13;5084773;28;20040;-72
2022/11/30 08:30:28;;;;;;;20.23;12.70;;;;;;;7.15;56.13;101925.47;5082849;28;20111;-73
2022/11/30 08:32:59;;;;;;;21.75;12.77;;;;;;;7.16;56.37;101927.22;5085527;28;20040;-73
2022/11/30 08:35:27;;;;;;;20.27;12.70;;;;;;;7.15;56.14;101937.25;5086674;28;20028;-74
2022/11/30 08:37:55;;;;;;;22.75;13.07;;;;;;;7.16;55.94;101929.97;5063270;28;20419;-74
2022/11/30 08:40:23;;;;;;;21.90;12.85;;;;;;;7.17;56.15;101937.16;5074381;28;20047;-74
2022/11/30 08:42:51;;;;;;;21.20;12.05;;;;;;;7.16;55.98;101933.56;5072098;28;20051;-73
2022/11/30 08:45:20;;;;;;;24.02;13.43;;;;;;;7.17;55.99;101935.31;5081590;28;20097;-73
2022/11/30 08:47:48;;;;;;;22.70;12.50;;;;;;;7.17;56.07;101934.44;5088227;28;20031;-72
2022/11/30 08:50:16;;;;;;;21.42;12.85;;;;;;;7.18;55.99;101938.91;5089706;28;20089;-74
2022/11/30 08:52:43;;;;;;;20.77;12.52;;;;;;;7.17;55.83;101948.06;5086681;28;20075;-74
2022/11/30 08:55:11;;;;;;;23.52;13.35;;;;;;;7.18;55.98;101947.09;5077138;28;20037;-73
2022/11/30 08:57:42;;;;;;;27.00;14.77;;;;;;;7.18;56.10;101945.25;5092697;28;20527;-73
2022/11/30 09:00:14;;;;;;;26.52;14.85;;;;;;;7.19;55.92;101943.38;5086273;28;20528;-73
2022/11/30 09:02:43;;;;;;;28.48;16.77;;;;;;;7.20;55.71;101951.47;5091485;28;20040;-74
2022/11/30 09:05:11;;;;;;;27.00;16.17;;;;;;;7.18;55.77;101952.53;5093670;28;20040;-73
2022/11/30 09:07:39;;;;;;;26.92;15.57;;;;;;;7.17;55.87;101951.66;5082865;28;20127;-73
2022/11/30 09:10:08;;;;;;;29.73;16.55;;;;;;;7.19;55.67;101957.00;5084894;28;20048;-73
2022/11/30 09:12:37;;;;;;;29.35;16.42;;;;;;;7.17;56.03;101959.81;5087453;28;20122;-73
2022/11/30 09:15:06;;;;;;;31.25;18.08;;;;;;;7.18;55.67;101956.13;5088524;28;20040;-73
2022/11/30 09:17:34;;;;;;;30.10;17.85;;;;;;;7.17;55.71;101962.53;5089655;28;20043;-74
2022/11/30 09:20:04;;;;;;;30.95;17.23;;;;;;;7.19;55.83;101957.88;5063844;28;20059;-73
2022/11/30 09:22:32;;;;;;;28.70;17.08;;;;;;;7.17;55.77;101962.53;5091365;28;20048;-73
2022/11/30 09:25:00;;;;;;;30.88;17.77;;;;;;;7.17;55.76;101964.38;5087091;28;20393;-73
2022/11/30 09:27:30;;;;;;;31.25;17.65;;;;;;;7.18;55.88;101974.31;5087947;28;20035;-74
2022/11/30 09:29:59;;;;;;;32.25;18.30;;;;;;;7.17;55.88;101965.28;5083664;28;20509;-73
2022/11/30 09:32:27;;;;;;;29.67;17.05;;;;;;;7.19;56.16;101974.19;5085430;28;20505;-74
2022/11/30 09:34:55;;;;;;;30.27;17.83;;;;;;;7.19;56.20;101970.59;5084775;28;20070;-75
2022/11/30 09:37:24;;;;;;;34.25;18.63;;;;;;;7.20;55.50;101966.91;5094590;28;20036;-75
2022/11/30 09:39:52;;;;;;;32.33;18.52;;;;;;;7.18;55.89;101975.19;5091425;28;20443;-75
2022/11/30 09:42:41;;;;;;;34.47;19.02;;;;;;;7.20;55.25;101969.63;5066077;28;20049;-75
2022/11/30 09:45:16;;;;;;;36.97;20.10;;;;;;;7.18;55.76;101964.31;5086044;28;20075;-75
2022/11/30 09:48:11;;;;;;;33.35;19.33;;;;;;;7.16;55.41;101960.78;5093149;28;20060;-74
2022/11/30 09:50:43;;;;;;;36.97;19.45;;;;;;;7.17;55.69;101972.56;5089355;28;20135;-74
2022/11/30 09:53:20;;;;;;;38.75;21.80;;;;;;;7.18;55.79;101967.03;5080833;28;20044;-74
2022/11/30 09:55:56;;;;;;;38.92;20.75;;;;;;;7.15;55.80;101960.88;5096545;28;20048;-74
2022/11/30 09:58:36;;;;;;;36.05;19.98;;;;;;;7.17;55.63;101961.66;5086727;28;20438;-74
2022/11/30 10:01:13;;;;;;;35.80;20.42;;;;;;;7.16;55.87;101966.22;5082435;28;20059;-75
2022/11/30 10:03:41;;;;;;;38.08;21.38;;;;;;;7.15;56.06;101960.88;5074233;28;20044;-74
2022/11/30 10:06:15;;;;;;;35.83;19.80;;;;;;;7.16;55.87;101960.78;5088512;28;20471;-75
2022/11/30 10:09:06;;;;;;;39.50;21.52;;;;;;;7.16;55.63;101957.19;5102739;23;20046;-85
2022/11/30 10:11:45;;;;;;;36.72;20.52;;;;;;;7.18;56.06;101957.97;5107582;28;20145;-84
2022/11/30 10:14:26;;;;;;;38.00;20.85;;;;;;;7.16;55.76;101959.91;5116766;28;20054;-84
2022/11/30 10:17:01;;;;;;;38.85;21.73;;;;;;;7.15;55.97;101964.47;5123200;27;20123;-84
2022/11/30 10:19:46;;;;;;;39.22;21.70;;;;;;;7.19;55.82;101970.59;5099061;28;20049;-85
2022/11/30 10:22:23;;;;;;;39.00;20.85;;;;;;;7.17;55.76;101968.00;5104673;28;20138;-85
2022/11/30 10:25:03;;;;;;;41.80;21.40;;;;;;;7.17;55.78;101968.00;5098210;28;20039;-85
2022/11/30 10:27:48;;;;;;;38.58;20.85;;;;;;;7.17;55.52;101959.81;5106876;28;20039;-85
2022/11/30 10:30:20;;;;;;;38.42;20.10;;;;;;;7.16;55.78;101965.34;5103383;28;20069;-84
2022/11/30 10:32:52;;;;;;;40.53;21.97;;;;;;;7.16;55.53;101959.91;5103082;28;20047;-83
2022/11/30 10:35:28;;;;;;;36.20;20.23;;;;;;;7.17;55.66;101953.50;5099406;28;20350;-83
2022/11/30 10:38:00;;;;;;;37.40;19.80;;;;;;;7.16;55.84;101960.78;5111174;28;20047;-83
2022/11/30 10:40:37;;;;;;;34.78;19.58;;;;;;;7.19;56.00;101959.72;5098821;28;20088;-84
2022/11/30 10:43:17;;;;;;;35.13;20.02;;;;;;;7.19;55.85;101954.25;5111685;28;20058;-83
2022/11/30 10:45:48;;;;;;;35.42;20.02;;;;;;;7.17;55.74;101950.78;5103836;28;20036;-83
2022/11/30 10:48:22;;;;;;;36.17;20.30;;;;;;;7.19;55.87;101955.16;5094441;28;20040;-84
2022/11/30 10:50:51;;;;;;;37.97;19.80;;;;;;;7.18;55.79;101953.41;5105185;28;20056;-85
2022/11/30 10:53:19;;;;;;;36.35;19.73;;;;;;;7.18;56.02;101950.69;5094680;28;20108;-84
2022/11/30 10:55:56;;;;;;;34.90;18.67;;;;;;;7.21;55.46;101957.78;5092289;28;20032;-84
2022/11/30 10:58:28;;;;;;;32.88;18.02;;;;;;;7.17;56.14;101946.22;5111748;27;20039;-83
2022/11/30 11:01:04;;;;;;;30.95;17.70;;;;;;;7.20;55.86;101948.75;5108693;28;20083;-83
2022/11/30 11:03:33;;;;;;;30.60;18.15;;;;;;;7.19;56.00;101948.81;5106957;27;20119;-83
2022/11/30 11:06:14;;;;;;;32.67;18.67;;;;;;;7.22;55.51;101947.78;5095025;28;20043;-85
2022/11/30 11:08:44;;;;;;;31.80;18.38;;;;;;;7.19;55.87;101952.44;5092955;27;20093;-85
2022/11/30 11:11:29;;;;;;;28.45;16.92;;;;;;;7.20;55.36;101947.84;5095790;28;20043;-85
2022/11/30 11:14:17;;;;;;;28.92;15.77;;;;;;;7.19;55.68;101957.00;5090638;28;20051;-85
2022/11/30 11:16:54;;;;;;;27.38;14.52;;;;;;;7.20;55.73;101951.47;5111114;27;20086;-83
2022/11/30 11:19:25;;;;;;;26.35;14.98;;;;;;;7.16;55.65;101947.16;5095305;28;20103;-83
2022/11/30 11:21:53;;;;;;;25.90;14.30;;;;;;;7.18;55.92;101947.97;5102411;28;20048;-81
2022/11/30 11:24:26;;;;;;;25.60;15.02;;;;;;;7.20;55.61;101950.59;5100381;27;20343;-84
2022/11/30 11:26:57;;;;;;;25.20;13.85;;;;;;;7.20;55.54;101953.31;5107748;28;20062;-84
2022/11/30 11:29:32;;;;;;;24.95;14.85;;;;;;;7.21;55.95;101952.34;5095258;28;20043;-83
2022/11/30 11:32:09;;;;;;;24.70;14.73;;;;;;;7.22;55.57;101954.09;5095903;28;20506;-83
2022/11/30 11:34:37;;;;;;;26.70;15.05;;;;;;;7.18;55.90;101953.41;5088156;28;20051;-83
2022/11/30 11:37:07;;;;;;;22.70;13.63;;;;;;;7.17;55.47;101943.50;5094601;28;20040;-83
2022/11/30 11:39:35;;;;;;;23.75;13.48;;;;;;;7.17;55.69;101953.50;5093580;28;20048;-83